Weather History for Wooster, OH

Change the Weather History Date:

Monday, December 10, 2012

  Actual Average Record
Temperature  
Mean Temperature 43 °F -  
Max Temperature 54 °F 38 °F 54 °F (2012)
Min Temperature 32 °F 25 °F 9 °F (2000)
Degree Days  
Heating Degree Days 22    
Moisture  
Dew Point 41 °F    
Average Humidity 93    
Maximum Humidity 100    
Minimum Humidity 81    
Precipitation  
Precipitation 0.26 in - - ()
Sea Level Pressure  
Sea Level Pressure 29.69 in    
Wind  
Wind Speed 9 mph (WNW)    
Max Wind Speed 16 mph    
Max Gust Speed -    
Visibility 7 miles    
Events Rain    
Averages and records for this station are not official NWS values.
T = Trace of Precipitation, MM = Missing Value Source: NWS Daily Summary

Daily Weather History Graph

Daily Weather History Graph

Search for Another Location

Airport:

Trip Planner

Search our weather history database for the weather conditions in past years. The results will help you decide how hot, cold, wet, or windy it might be!

Date:

Astronomy

Dec. 10, 2012 Rise Set
Actual Time 7:41 AM EST 4:59 PM EST
Civil Twilight 7:10 AM EST 5:30 PM EST
Nautical Twilight 6:36 AM EST 6:04 PM EST
Astronomical Twilight 6:02 AM EST 6:38 PM EST
Moon 4:22 AM EST (12/10) 2:48 PM EST (12/10)
Length of Visible Light 10h 19m
Length of Day
9h 18m
Waning Crescent, 10% of the Moon is Illuminated
Dec 10
Waning Crescent
Dec 13
New
Dec 20
First Quarter
Dec 28
Full
Jan 4
Last Quarter

Hourly Weather History & Observations

Time (EST) Temp. Windchill Dew Point Humidity Pressure Visibility Wind Dir Wind Speed Gust Speed Precip Events Conditions
12:07 AM 53.6 °F - 53.6 °F 100% 29.67 in 4.0 mi South 5.8 mph - 0.02 in Rain Rain
12:14 AM 53.6 °F - 53.6 °F 100% 29.67 in 4.0 mi South 6.9 mph - 0.03 in Rain Light Rain
12:56 AM 54.0 °F - 52.0 °F 93% 29.68 in 4.0 mi West 6.9 mph - 0.13 in Rain Rain
1:04 AM 53.6 °F - 51.8 °F 94% 29.66 in 5.0 mi WSW 4.6 mph - 0.02 in Rain Rain
1:15 AM 53.6 °F - 51.8 °F 94% 29.65 in 5.0 mi SW 3.5 mph - 0.04 in Rain Light Rain
1:56 AM 54.0 °F - 53.1 °F 97% 29.65 in 8.0 mi SW 10.4 mph - 0.10 in Rain Light Rain
2:56 AM 54.0 °F - 51.1 °F 90% 29.64 in 10.0 mi SW 12.7 mph - 0.00 in   Overcast
3:31 AM 53.6 °F - 51.8 °F 94% 29.63 in 10.0 mi SW 11.5 mph - N/A   Mostly Cloudy
3:48 AM 53.6 °F - 51.8 °F 94% 29.62 in 9.0 mi SW 12.7 mph - N/A   Overcast
3:56 AM 53.1 °F - 51.1 °F 93% 29.63 in 9.0 mi SW 11.5 mph - N/A   Overcast
4:28 AM 53.6 °F - 51.8 °F 94% 29.62 in 4.0 mi SW 11.5 mph - N/A   Overcast
4:56 AM 53.1 °F - 52.0 °F 96% 29.64 in 4.0 mi WSW 10.4 mph - 0.01 in Rain Light Rain
5:18 AM 50.0 °F - 48.2 °F 94% 29.63 in 7.0 mi WNW 9.2 mph - 0.01 in Rain Light Rain
5:56 AM 48.0 °F - 46.9 °F 96% 29.64 in 3.0 mi WNW 13.8 mph - 0.01 in   Overcast
6:17 AM 48.2 °F - 46.4 °F 93% 29.63 in 3.0 mi WNW 11.5 mph - N/A   Overcast
6:31 AM 46.4 °F 41.1 °F 46.4 °F 100% 29.63 in 4.0 mi WNW 11.5 mph - N/A   Overcast
6:46 AM 46.4 °F 43.5 °F 46.4 °F 100% 29.63 in 7.0 mi West 5.8 mph - N/A   Overcast
6:56 AM 48.0 °F - 46.0 °F 93% 29.64 in 10.0 mi West 9.2 mph - N/A   Overcast
7:56 AM 46.9 °F - 46.0 °F 97% 29.65 in 10.0 mi West 6.9 mph - N/A   Overcast
8:39 AM 46.4 °F 43.5 °F 44.6 °F 93% 29.64 in 8.0 mi WNW 5.8 mph - 0.01 in   Overcast
8:56 AM 46.9 °F - 45.0 °F 93% 29.66 in 6.0 mi West 8.1 mph - 0.01 in Rain Light Rain
9:11 AM 46.4 °F 41.9 °F 44.6 °F 93% 29.65 in 7.0 mi WNW 9.2 mph - 0.00 in   Overcast
9:26 AM 46.4 °F 40.7 °F 44.6 °F 93% 29.66 in 5.0 mi WNW 12.7 mph - 0.00 in   Overcast
9:56 AM 45.0 °F 38.9 °F 44.1 °F 97% 29.67 in 3.0 mi NW 12.7 mph - 0.00 in   Overcast
10:04 AM 44.6 °F 38.8 °F 42.8 °F 93% 29.66 in 2.5 mi WNW 11.5 mph - N/A   Overcast
10:14 AM 44.6 °F 40.2 °F 42.8 °F 93% 29.65 in 2.5 mi WNW 8.1 mph - 0.00 in Rain Light Rain
10:52 AM 42.8 °F 36.2 °F 42.8 °F 100% 29.66 in 1.8 mi NW 12.7 mph - 0.00 in   Overcast
10:56 AM 42.1 °F 35.2 °F 41.0 °F 96% 29.67 in 1.8 mi WNW 12.7 mph - 0.00 in   Overcast
11:33 AM 39.2 °F 32.0 °F 39.2 °F 100% 29.64 in 2.5 mi NW 11.5 mph - N/A   Overcast
11:56 AM 39.9 °F 32.5 °F 39.9 °F 100% 29.63 in 2.5 mi NW 12.7 mph - N/A   Overcast
12:08 PM 39.2 °F 30.5 °F 37.4 °F 93% 29.64 in 4.0 mi NW 16.1 mph - N/A   Overcast
12:20 PM 39.2 °F 31.6 °F 37.4 °F 93% 29.64 in 5.0 mi WNW 12.7 mph - N/A   Overcast
12:31 PM 39.2 °F 31.6 °F 37.4 °F 93% 29.64 in 5.0 mi WNW 12.7 mph - N/A   Overcast
12:56 PM 39.0 °F 30.6 °F 37.0 °F 93% 29.67 in 4.0 mi WNW 15.0 mph - N/A   Overcast
1:09 PM 37.4 °F 29.8 °F 37.4 °F 100% 29.66 in 3.0 mi NW 11.5 mph - N/A   Overcast
1:33 PM 37.4 °F 30.8 °F 35.6 °F 93% 29.64 in 8.0 mi NW 9.2 mph - N/A   Overcast
1:42 PM 37.4 °F 30.3 °F 35.6 °F 93% 29.65 in 8.0 mi WNW 10.4 mph - N/A   Overcast
1:56 PM 39.0 °F 31.8 °F 34.0 °F 82% 29.67 in 10.0 mi NW 11.5 mph - N/A   Overcast
2:56 PM 37.9 °F 33.5 °F 34.0 °F 86% 29.66 in 10.0 mi WNW 5.8 mph - N/A   Overcast
3:56 PM 37.9 °F 30.5 °F 34.0 °F 86% 29.69 in 10.0 mi WNW 11.5 mph - N/A   Overcast
4:12 PM 37.4 °F 32.1 °F 33.8 °F 87% 29.68 in 10.0 mi NW 6.9 mph - N/A   Overcast
4:56 PM 37.9 °F 32.1 °F 33.1 °F 83% 29.71 in 10.0 mi WNW 8.1 mph - N/A   Overcast
5:43 PM 37.4 °F 31.4 °F 32.0 °F 81% 29.71 in 8.0 mi West 8.1 mph - 0.00 in Rain Light Rain
5:56 PM 37.0 °F 31.0 °F 33.1 °F 86% 29.74 in 10.0 mi WNW 8.1 mph - 0.00 in Rain Light Rain
6:15 PM 37.4 °F 32.8 °F 33.8 °F 87% 29.73 in 10.0 mi West 5.8 mph - 0.00 in   Overcast
6:56 PM 37.0 °F 32.4 °F 32.0 °F 82% 29.74 in 10.0 mi West 5.8 mph - 0.00 in   Overcast
7:53 PM 35.6 °F 30.7 °F 33.8 °F 93% 29.74 in 10.0 mi West 5.8 mph - N/A   Overcast
7:56 PM 36.0 °F 31.1 °F 33.1 °F 89% 29.77 in 10.0 mi West 5.8 mph - N/A   Overcast
8:54 PM 35.6 °F 28.0 °F 33.8 °F 93% 29.76 in 8.0 mi WNW 10.4 mph - N/A   Overcast
8:56 PM 36.0 °F 28.0 °F 32.0 °F 86% 29.77 in 9.0 mi WNW 11.5 mph - N/A   Overcast
9:13 PM 35.6 °F 27.1 °F 32.0 °F 87% 29.77 in 8.0 mi WNW 12.7 mph - N/A   Overcast
9:21 PM 35.6 °F 28.0 °F 33.8 °F 93% 29.77 in 8.0 mi WNW 10.4 mph - N/A   Overcast
9:56 PM 35.1 °F 26.9 °F 32.0 °F 89% 29.82 in 6.0 mi West 11.5 mph - N/A   Overcast
10:46 PM 33.8 °F 25.3 °F 32.0 °F 93% 29.81 in 8.0 mi NNW 11.5 mph - 0.00 in   Overcast
10:56 PM 33.1 °F 24.4 °F 30.9 °F 92% 29.85 in 8.0 mi NNW 11.5 mph - 0.00 in   Overcast
11:07 PM 33.8 °F 27.7 °F 32.0 °F 93% 29.83 in 7.0 mi NW 6.9 mph - N/A   Overcast
11:43 PM 32.0 °F 23.6 °F 30.2 °F 93% 29.84 in 9.0 mi NNW 10.4 mph - N/A   Overcast
11:56 PM 32.0 °F 24.2 °F 30.9 °F 96% 29.87 in 9.0 mi NNW 9.2 mph - N/A   Overcast